createdAt,value
2018-04-30T00:01:48.859Z,35.03
2018-04-30T00:04:18.479Z,35.02
2018-04-30T00:06:48.012Z,35.01
2018-04-30T00:09:17.568Z,35.01
2018-04-30T00:11:46.134Z,35.00
2018-04-30T00:14:16.060Z,35.00
2018-04-30T00:16:45.369Z,34.99
2018-04-30T00:19:15.164Z,34.99
2018-04-30T00:21:43.899Z,34.99
2018-04-30T00:24:13.190Z,34.98
2018-04-30T00:26:42.374Z,34.97
2018-04-30T00:29:11.653Z,34.95
2018-04-30T00:31:41.419Z,34.94
2018-04-30T00:34:10.762Z,34.94
2018-04-30T00:36:39.577Z,34.93
2018-04-30T00:39:08.612Z,34.92
2018-04-30T00:41:37.537Z,34.91
2018-04-30T00:44:06.317Z,34.90
2018-04-30T00:46:35.613Z,34.90
2018-04-30T00:49:04.440Z,34.89
2018-04-30T00:51:33.957Z,34.88
2018-04-30T00:54:03.272Z,34.87
2018-04-30T00:56:32.565Z,34.85
2018-04-30T00:59:02.060Z,34.81
2018-04-30T01:01:31.461Z,34.77
2018-04-30T01:04:01.428Z,34.75
2018-04-30T01:06:30.912Z,34.75
2018-04-30T01:09:00.861Z,34.75
2018-04-30T01:11:30.788Z,34.74
2018-04-30T01:14:00.340Z,34.72
2018-04-30T01:16:29.832Z,34.71
2018-04-30T01:18:58.950Z,34.69
2018-04-30T01:21:28.180Z,34.66
2018-04-30T01:23:57.115Z,34.66
2018-04-30T01:26:26.573Z,34.64
2018-04-30T01:28:55.889Z,34.62
2018-04-30T01:31:25.448Z,34.63
2018-04-30T01:33:54.154Z,34.62
2018-04-30T01:36:23.413Z,34.62
2018-04-30T01:38:52.165Z,34.62
2018-04-30T01:41:21.796Z,34.61
2018-04-30T01:43:50.553Z,34.60
2018-04-30T01:46:20.270Z,34.59
2018-04-30T01:48:49.581Z,34.58
2018-04-30T01:51:18.065Z,34.58
2018-04-30T01:53:48.499Z,34.58
2018-04-30T01:56:18.531Z,34.57
2018-04-30T01:58:47.389Z,34.57
2018-04-30T02:01:17.123Z,34.57
2018-04-30T02:03:46.251Z,34.57
2018-04-30T02:06:16.013Z,34.57
2018-04-30T02:08:45.641Z,34.57
2018-04-30T02:11:14.911Z,34.56
2018-04-30T02:13:44.060Z,34.54
2018-04-30T02:16:13.844Z,34.54
2018-04-30T02:18:44.040Z,34.53
2018-04-30T02:21:13.350Z,34.52
2018-04-30T02:23:42.511Z,34.52
2018-04-30T02:26:11.792Z,34.52
2018-04-30T02:28:41.075Z,34.51
2018-04-30T02:31:10.544Z,34.51
2018-04-30T02:33:40.888Z,34.51
2018-04-30T02:36:10.077Z,34.51
2018-04-30T02:38:39.553Z,34.51
2018-04-30T02:41:08.754Z,34.50
2018-04-30T02:43:38.435Z,34.50
2018-04-30T02:46:07.734Z,34.50
2018-04-30T02:48:37.763Z,34.50
2018-04-30T02:51:06.729Z,34.50
2018-04-30T02:53:35.891Z,34.49
2018-04-30T02:56:04.766Z,34.48
2018-04-30T02:58:34.025Z,34.48
2018-04-30T03:01:03.107Z,34.47
2018-04-30T03:03:32.581Z,34.46
2018-04-30T03:06:02.479Z,34.46
2018-04-30T03:08:32.283Z,34.45
2018-04-30T03:11:02.053Z,34.44
2018-04-30T03:13:31.448Z,34.44
2018-04-30T03:16:01.165Z,34.44
2018-04-30T03:18:30.755Z,34.44
2018-04-30T03:21:01.044Z,34.44
2018-04-30T03:23:30.044Z,34.44
2018-04-30T03:25:59.350Z,34.43
2018-04-30T03:28:28.829Z,34.43
2018-04-30T03:30:58.133Z,34.42
2018-04-30T03:33:27.259Z,34.43
2018-04-30T03:35:56.649Z,34.42
2018-04-30T03:40:59.995Z,34.42
2018-04-30T03:43:29.115Z,34.41
2018-04-30T03:45:59.706Z,34.41
2018-04-30T03:48:29.104Z,34.41
2018-04-30T03:50:58.557Z,34.41
2018-04-30T03:53:27.596Z,34.41
2018-04-30T03:55:56.330Z,34.41
2018-04-30T03:58:25.477Z,34.41
2018-04-30T04:01:06.451Z,34.37
2018-04-30T04:03:47.160Z,34.37
2018-04-30T04:09:17.654Z,34.38
2018-04-30T04:11:55.423Z,34.38
2018-04-30T04:14:24.351Z,34.38
2018-04-30T04:16:53.388Z,34.39
2018-04-30T04:19:22.843Z,34.36
2018-04-30T04:21:52.055Z,34.31
2018-04-30T04:24:21.529Z,34.32
2018-04-30T04:26:51.333Z,34.33
2018-04-30T04:29:20.910Z,34.34
2018-04-30T04:31:49.568Z,34.35
2018-04-30T04:34:18.840Z,34.36
2018-04-30T04:36:48.109Z,34.36
2018-04-30T04:39:17.472Z,34.34
2018-04-30T04:41:48.644Z,34.34
2018-04-30T04:44:17.890Z,34.34
2018-04-30T04:46:47.820Z,34.34
2018-04-30T04:49:16.585Z,34.34
2018-04-30T04:51:45.108Z,34.35
2018-04-30T04:54:13.935Z,34.34
2018-04-30T04:56:42.955Z,34.34
2018-04-30T04:59:13.621Z,34.35
2018-04-30T05:01:42.571Z,34.34
2018-04-30T05:04:12.046Z,34.34
2018-04-30T05:06:41.912Z,34.34
2018-04-30T05:09:11.267Z,34.34
2018-04-30T05:11:40.564Z,34.35
2018-04-30T05:14:10.256Z,34.35
2018-04-30T05:16:40.625Z,34.36
2018-04-30T05:19:10.033Z,34.35
2018-04-30T05:21:39.855Z,34.37
2018-04-30T05:24:09.781Z,34.36
2018-04-30T05:26:38.624Z,34.34
2018-04-30T05:29:07.554Z,34.33
2018-04-30T05:31:39.255Z,34.33
2018-04-30T05:34:08.629Z,34.33
2018-04-30T05:36:37.725Z,34.17
2018-04-30T05:39:10.186Z,34.14
2018-04-30T05:41:39.433Z,34.18
2018-04-30T05:44:09.529Z,34.20
2018-04-30T05:46:39.224Z,34.21
2018-04-30T05:49:08.826Z,34.21
2018-04-30T05:51:37.987Z,34.21
2018-04-30T05:54:07.750Z,34.24
2018-04-30T05:56:37.084Z,34.26
2018-04-30T05:59:08.343Z,34.27
2018-04-30T06:01:37.664Z,34.27
2018-04-30T06:04:06.938Z,34.28
2018-04-30T06:06:35.772Z,34.30
2018-04-30T06:09:05.158Z,34.31
2018-04-30T06:11:34.505Z,34.31
2018-04-30T06:14:04.391Z,34.31
2018-04-30T06:16:34.396Z,34.31
2018-04-30T06:19:04.066Z,34.31
2018-04-30T06:21:33.674Z,34.31
2018-04-30T06:24:03.541Z,34.32
2018-04-30T06:26:33.873Z,34.32
2018-04-30T06:29:03.575Z,34.32
2018-04-30T06:31:32.899Z,34.32
2018-04-30T06:34:04.493Z,34.32
2018-04-30T06:36:34.550Z,34.32
2018-04-30T06:39:04.499Z,34.30
2018-04-30T06:41:33.778Z,34.29
2018-04-30T06:44:03.137Z,34.30
2018-04-30T06:46:31.969Z,34.31
2018-04-30T06:49:01.444Z,34.32
2018-04-30T06:51:30.757Z,34.33
2018-04-30T06:54:00.534Z,34.34
2018-04-30T06:56:30.058Z,34.36
2018-04-30T06:58:59.632Z,34.37
2018-04-30T07:01:28.553Z,34.38
2018-04-30T07:03:57.532Z,34.38
2018-04-30T07:06:27.142Z,34.39
2018-04-30T07:08:56.699Z,34.39
2018-04-30T07:11:25.854Z,34.39
2018-04-30T07:13:54.747Z,34.40
2018-04-30T07:16:23.604Z,34.40
2018-04-30T07:18:53.485Z,34.41
2018-04-30T07:21:22.861Z,34.43
2018-04-30T07:23:52.085Z,34.43
2018-04-30T07:26:21.468Z,34.43
2018-04-30T07:28:51.500Z,34.42
2018-04-30T07:31:21.021Z,34.43
2018-04-30T07:33:51.061Z,34.43
2018-04-30T07:36:19.968Z,34.43
2018-04-30T07:38:49.689Z,34.44
2018-04-30T07:41:18.824Z,34.45
2018-04-30T07:43:48.575Z,34.45
2018-04-30T07:46:17.958Z,34.47
2018-04-30T07:48:48.029Z,34.47
2018-04-30T07:51:17.615Z,34.48
2018-04-30T07:53:47.823Z,34.48
2018-04-30T07:56:17.365Z,34.48
2018-04-30T07:58:47.316Z,34.48
2018-04-30T08:01:16.496Z,34.49
2018-04-30T08:03:46.428Z,34.50
2018-04-30T08:06:15.754Z,34.51
2018-04-30T08:08:44.778Z,34.51
2018-04-30T08:11:14.730Z,34.52
2018-04-30T08:13:44.709Z,34.52
2018-04-30T08:16:14.139Z,34.52
2018-04-30T08:18:43.718Z,34.53
2018-04-30T08:21:13.583Z,34.53
2018-04-30T08:23:43.258Z,34.54
2018-04-30T08:26:13.010Z,34.55
2018-04-30T08:28:42.494Z,34.55
2018-04-30T08:31:12.164Z,34.55
2018-04-30T08:33:41.625Z,34.56
2018-04-30T08:36:10.808Z,34.56
2018-04-30T08:38:41.180Z,34.58
2018-04-30T08:41:10.513Z,34.59
2018-04-30T08:43:39.606Z,34.60
2018-04-30T08:46:09.096Z,34.60
2018-04-30T08:48:38.771Z,34.61
2018-04-30T08:51:07.852Z,34.61
2018-04-30T08:53:37.099Z,34.62
2018-04-30T08:56:06.635Z,34.63
2018-04-30T08:58:35.678Z,34.64
2018-04-30T09:01:05.074Z,34.65
2018-04-30T09:03:33.988Z,34.66
2018-04-30T09:06:03.912Z,34.67
2018-04-30T09:08:33.510Z,34.67
2018-04-30T09:11:02.419Z,34.68
2018-04-30T09:13:32.038Z,34.69
2018-04-30T09:16:01.613Z,34.70
2018-04-30T09:18:31.925Z,34.72
2018-04-30T09:21:00.684Z,34.73
2018-04-30T09:23:30.470Z,34.73
2018-04-30T09:26:00.029Z,34.73
2018-04-30T09:28:30.051Z,34.73
2018-04-30T09:30:59.249Z,34.74
2018-04-30T09:33:29.006Z,34.74
2018-04-30T09:35:58.733Z,34.76
2018-04-30T09:38:28.110Z,34.77
2018-04-30T09:40:57.362Z,34.78
2018-04-30T09:43:32.405Z,34.79
2018-04-30T09:46:01.946Z,34.81
2018-04-30T09:48:31.676Z,34.82
2018-04-30T09:51:00.876Z,34.83
2018-04-30T09:53:30.803Z,34.84
2018-04-30T09:55:59.953Z,34.85
2018-04-30T09:58:29.896Z,34.86
2018-04-30T10:00:59.613Z,34.87
2018-04-30T10:03:28.807Z,34.89
2018-04-30T10:05:57.439Z,34.90
2018-04-30T10:08:26.921Z,34.91
2018-04-30T10:10:56.364Z,34.92
2018-04-30T10:13:25.702Z,34.93
2018-04-30T10:15:55.315Z,34.94
2018-04-30T10:18:23.892Z,34.95
2018-04-30T10:20:53.537Z,34.96
2018-04-30T10:23:23.098Z,34.97
2018-04-30T10:25:52.585Z,34.98
2018-04-30T10:28:22.018Z,34.99
2018-04-30T10:30:52.069Z,34.99
2018-04-30T10:33:21.567Z,35.00
2018-04-30T10:35:50.786Z,35.02
2018-04-30T10:38:20.260Z,35.03
2018-04-30T10:40:49.246Z,35.04
2018-04-30T10:43:18.411Z,35.05
2018-04-30T10:45:47.570Z,35.07
2018-04-30T10:48:17.284Z,35.09
2018-04-30T10:50:47.358Z,35.10
2018-04-30T10:53:16.585Z,35.10
2018-04-30T10:55:46.677Z,35.12
2018-04-30T10:58:17.207Z,35.13
2018-04-30T11:00:46.778Z,35.14
2018-04-30T11:03:16.778Z,35.15
2018-04-30T11:05:46.612Z,35.16
2018-04-30T11:08:16.555Z,35.17
2018-04-30T11:10:45.866Z,35.17
2018-04-30T11:13:15.288Z,35.17
2018-04-30T11:15:44.534Z,35.18
2018-04-30T11:18:14.341Z,35.19
2018-04-30T11:20:43.813Z,35.20
2018-04-30T11:23:13.244Z,35.21
2018-04-30T11:25:43.082Z,35.22
2018-04-30T11:28:12.239Z,35.24
2018-04-30T11:30:42.257Z,35.25
2018-04-30T11:33:11.598Z,35.25
2018-04-30T11:35:41.263Z,35.26
2018-04-30T11:38:10.324Z,35.28
2018-04-30T11:40:39.490Z,35.29
2018-04-30T11:43:09.401Z,35.29
2018-04-30T11:45:39.136Z,35.30
2018-04-30T11:48:08.678Z,35.31
2018-04-30T11:50:37.956Z,35.32
2018-04-30T11:53:07.712Z,35.33
2018-04-30T11:55:37.171Z,35.33
2018-04-30T11:58:06.970Z,35.34
2018-04-30T12:00:36.683Z,35.34
2018-04-30T12:03:05.557Z,35.35
2018-04-30T12:05:35.508Z,35.36
2018-04-30T12:08:05.124Z,35.35
2018-04-30T12:10:34.797Z,35.35
2018-04-30T12:13:04.714Z,35.36
2018-04-30T12:15:33.761Z,35.36
2018-04-30T12:18:03.353Z,35.36
2018-04-30T12:20:33.185Z,35.36
2018-04-30T12:23:02.763Z,35.36
2018-04-30T12:25:33.049Z,35.37
2018-04-30T12:28:02.474Z,35.37
2018-04-30T12:30:32.251Z,35.38
2018-04-30T12:33:01.969Z,35.39
2018-04-30T12:35:30.842Z,35.39
2018-04-30T12:38:00.130Z,35.39
2018-04-30T12:40:29.631Z,35.40
2018-04-30T12:42:58.514Z,35.41
2018-04-30T12:45:27.864Z,35.40
2018-04-30T12:47:56.923Z,35.40
2018-04-30T12:50:26.662Z,35.41
2018-04-30T12:52:56.136Z,35.41
2018-04-30T12:55:25.666Z,35.40
2018-04-30T12:57:55.861Z,35.40
2018-04-30T13:00:26.607Z,35.40
2018-04-30T13:02:56.287Z,35.41
2018-04-30T13:05:25.652Z,35.41
2018-04-30T13:07:55.381Z,35.41
2018-04-30T13:10:24.279Z,35.42
2018-04-30T13:12:53.666Z,35.41
2018-04-30T13:15:24.518Z,35.41
2018-04-30T13:17:53.957Z,35.42
2018-04-30T13:20:23.288Z,35.42
2018-04-30T13:22:52.922Z,35.44
2018-04-30T13:25:21.964Z,35.44
2018-04-30T13:27:50.871Z,35.44
2018-04-30T13:30:19.933Z,35.44
2018-04-30T13:32:49.096Z,35.43
2018-04-30T13:35:18.465Z,35.43
2018-04-30T13:37:48.066Z,35.44
2018-04-30T13:40:17.544Z,35.44
2018-04-30T13:42:46.868Z,35.44
2018-04-30T13:45:15.487Z,35.44
2018-04-30T13:47:45.322Z,35.45
2018-04-30T13:50:14.840Z,35.45
2018-04-30T13:52:44.198Z,35.44
2018-04-30T13:55:13.011Z,35.44
2018-04-30T13:57:41.864Z,35.44
2018-04-30T14:00:11.460Z,35.45
2018-04-30T14:02:41.145Z,35.45
2018-04-30T14:05:10.598Z,35.45
2018-04-30T14:07:40.053Z,35.46
2018-04-30T14:10:08.836Z,35.46
2018-04-30T14:12:38.136Z,35.46
2018-04-30T14:15:07.141Z,35.47
2018-04-30T14:17:36.988Z,35.47
2018-04-30T14:20:06.811Z,35.47
2018-04-30T14:22:36.422Z,35.46
2018-04-30T14:25:05.910Z,35.47
2018-04-30T14:27:35.408Z,35.46
2018-04-30T14:30:04.655Z,35.47
2018-04-30T14:32:34.838Z,35.47
2018-04-30T14:35:04.353Z,35.48
2018-04-30T14:37:33.748Z,35.60
2018-04-30T14:40:03.294Z,35.60
2018-04-30T14:42:32.911Z,35.52
2018-04-30T14:45:02.189Z,35.55
2018-04-30T14:47:30.801Z,35.49
2018-04-30T14:49:59.427Z,35.46
2018-04-30T14:52:29.229Z,35.36
2018-04-30T14:54:59.010Z,35.32
2018-04-30T14:57:27.700Z,35.35
2018-04-30T14:59:56.974Z,35.38
2018-04-30T15:02:26.141Z,35.40
2018-04-30T15:04:55.191Z,35.41
2018-04-30T15:07:24.771Z,35.43
2018-04-30T15:09:53.561Z,35.44
2018-04-30T15:12:22.670Z,35.44
2018-04-30T15:14:52.546Z,35.45
2018-04-30T15:17:22.341Z,35.45
2018-04-30T15:19:52.748Z,35.46
2018-04-30T15:22:21.372Z,35.46
2018-04-30T15:24:51.309Z,35.46
2018-04-30T15:27:20.033Z,35.46
2018-04-30T15:29:49.072Z,35.46
2018-04-30T15:32:18.987Z,35.46
2018-04-30T15:34:47.816Z,35.46
2018-04-30T15:37:17.145Z,35.46
2018-04-30T15:39:46.011Z,35.46
2018-04-30T15:42:15.150Z,35.46
2018-04-30T15:44:43.954Z,35.46
2018-04-30T15:47:13.503Z,35.47
2018-04-30T15:49:43.274Z,35.47
2018-04-30T15:52:12.285Z,35.47
2018-04-30T15:54:42.054Z,35.48
2018-04-30T15:57:11.560Z,35.47
2018-04-30T15:59:40.998Z,35.47
2018-04-30T16:02:09.743Z,35.47
2018-04-30T16:04:38.874Z,35.47
2018-04-30T16:07:07.679Z,35.47
2018-04-30T16:09:36.770Z,35.48
2018-04-30T16:12:06.189Z,35.48
2018-04-30T16:14:35.401Z,35.47
2018-04-30T16:17:04.642Z,35.47
2018-04-30T16:19:34.039Z,35.48
2018-04-30T16:22:03.448Z,35.47
2018-04-30T16:24:32.544Z,35.47
2018-04-30T16:27:02.056Z,35.47
2018-04-30T16:29:31.670Z,35.48
2018-04-30T16:32:01.164Z,35.48
2018-04-30T16:34:30.582Z,35.48
2018-04-30T16:36:59.904Z,35.48
2018-04-30T16:39:28.789Z,35.48
2018-04-30T16:41:58.519Z,35.48
2018-04-30T16:44:28.241Z,35.48
2018-04-30T16:46:57.621Z,35.48
2018-04-30T16:49:26.923Z,35.48
2018-04-30T16:51:56.423Z,35.49
2018-04-30T16:54:25.075Z,35.48
2018-04-30T16:56:55.065Z,35.49
2018-04-30T16:59:24.992Z,35.48
2018-04-30T17:01:54.791Z,35.48
2018-04-30T17:04:23.902Z,35.48
2018-04-30T17:06:53.220Z,35.49
2018-04-30T17:09:22.668Z,35.48
2018-04-30T17:11:51.875Z,35.48
2018-04-30T17:14:21.273Z,35.48
2018-04-30T17:16:50.349Z,35.47
2018-04-30T17:19:19.144Z,35.48
2018-04-30T17:21:49.080Z,35.48
2018-04-30T17:24:17.966Z,35.48
2018-04-30T17:26:47.322Z,35.48
2018-04-30T17:29:16.593Z,35.48
2018-04-30T17:31:46.154Z,35.48
2018-04-30T17:34:15.618Z,35.48
2018-04-30T17:36:44.942Z,35.48
2018-04-30T17:39:14.220Z,35.48
2018-04-30T17:41:43.410Z,35.48
2018-04-30T17:44:12.252Z,35.47
2018-04-30T17:46:40.976Z,35.47
2018-04-30T17:49:10.317Z,35.47
2018-04-30T17:51:39.010Z,35.47
2018-04-30T17:54:08.657Z,35.47
2018-04-30T17:56:38.583Z,35.47
2018-04-30T17:59:09.027Z,35.46
2018-04-30T18:01:38.595Z,35.47
2018-04-30T18:04:08.881Z,35.46
2018-04-30T18:06:38.973Z,35.46
2018-04-30T18:09:08.500Z,35.45
2018-04-30T18:11:38.083Z,35.45
2018-04-30T18:14:07.301Z,35.45
2018-04-30T18:16:36.410Z,35.45
2018-04-30T18:19:06.380Z,35.45
2018-04-30T18:21:35.978Z,35.46
2018-04-30T18:24:05.593Z,35.45
2018-04-30T18:26:34.796Z,35.46
2018-04-30T18:29:04.052Z,35.46
2018-04-30T18:31:33.627Z,35.45
2018-04-30T18:34:08.187Z,35.44
2018-04-30T18:36:37.983Z,35.43
2018-04-30T18:39:15.127Z,35.43
2018-04-30T18:42:01.287Z,35.43
2018-04-30T18:44:31.971Z,35.43
2018-04-30T18:47:18.697Z,35.42
2018-04-30T18:50:04.809Z,35.41
2018-04-30T18:52:51.046Z,35.40
2018-04-30T19:01:10.494Z,35.30
2018-04-30T19:03:43.794Z,35.33
2018-04-30T19:06:13.231Z,35.34
2018-04-30T19:08:43.062Z,35.36
2018-04-30T19:11:12.340Z,35.37
2018-04-30T19:13:41.727Z,35.37
2018-04-30T19:16:11.338Z,35.38
2018-04-30T19:18:40.627Z,35.39
2018-04-30T19:21:10.675Z,35.39
2018-04-30T19:23:39.979Z,35.40
2018-04-30T19:26:09.141Z,35.39
2018-04-30T19:28:38.114Z,35.38
2018-04-30T19:31:07.776Z,35.38
2018-04-30T19:33:37.176Z,35.37
2018-04-30T19:36:07.222Z,35.36
2018-04-30T19:38:36.280Z,35.35
2018-04-30T19:41:05.708Z,35.34
2018-04-30T19:43:35.416Z,35.34
2018-04-30T19:46:04.260Z,35.34
2018-04-30T19:48:33.948Z,35.34
2018-04-30T19:51:03.294Z,35.34
2018-04-30T19:53:32.740Z,35.33
2018-04-30T19:56:02.167Z,35.32
2018-04-30T19:58:31.980Z,35.32
2018-04-30T20:01:01.889Z,35.31
2018-04-30T20:03:31.443Z,35.30
2018-04-30T20:06:00.123Z,35.31
2018-04-30T20:08:29.704Z,35.30
2018-04-30T20:10:58.691Z,35.31
2018-04-30T20:13:28.521Z,35.29
2018-04-30T20:15:58.255Z,35.29
2018-04-30T20:18:27.183Z,35.29
2018-04-30T20:20:57.163Z,35.29
2018-04-30T20:23:26.815Z,35.28
2018-04-30T20:25:56.843Z,35.27
2018-04-30T20:28:26.353Z,35.27
2018-04-30T20:30:55.625Z,35.27
2018-04-30T20:33:24.760Z,35.26
2018-04-30T20:35:53.772Z,35.26
2018-04-30T20:38:22.906Z,35.25
2018-04-30T20:40:52.106Z,35.24
2018-04-30T20:43:21.610Z,35.24
2018-04-30T20:45:50.273Z,35.25
2018-04-30T20:48:20.344Z,35.26
2018-04-30T20:50:49.442Z,35.26
2018-04-30T20:53:18.623Z,35.26
2018-04-30T20:55:48.824Z,35.25
2018-04-30T20:58:17.746Z,35.25
2018-04-30T21:00:47.584Z,35.25
2018-04-30T21:03:17.305Z,35.24
2018-04-30T21:05:46.104Z,35.24
2018-04-30T21:08:15.387Z,35.23
2018-04-30T21:10:45.286Z,35.22
2018-04-30T21:13:14.457Z,35.22
2018-04-30T21:15:44.029Z,35.21
2018-04-30T21:18:13.626Z,35.20
2018-04-30T21:20:42.425Z,35.19
2018-04-30T21:23:11.132Z,35.19
2018-04-30T21:25:40.153Z,35.19
2018-04-30T21:28:09.534Z,35.19
2018-04-30T21:30:39.770Z,35.19
2018-04-30T21:33:09.431Z,35.19
2018-04-30T21:35:39.063Z,35.19
2018-04-30T21:38:08.384Z,35.18
2018-04-30T21:40:37.995Z,35.18
2018-04-30T21:43:07.454Z,35.17
2018-04-30T21:45:36.999Z,35.18
2018-04-30T21:48:05.954Z,35.18
2018-04-30T21:50:36.304Z,35.17
2018-04-30T21:53:05.321Z,35.17
2018-04-30T21:55:35.256Z,35.16
2018-04-30T21:58:04.486Z,35.16
2018-04-30T22:00:34.511Z,35.15
2018-04-30T22:03:04.540Z,35.14
2018-04-30T22:05:34.840Z,35.14
2018-04-30T22:08:03.937Z,35.13
2018-04-30T22:10:32.959Z,35.13
2018-04-30T22:13:02.198Z,35.12
2018-04-30T22:15:32.190Z,35.12
2018-04-30T22:18:01.114Z,35.11
2018-04-30T22:20:30.397Z,35.12
2018-04-30T22:23:00.415Z,35.11
2018-04-30T22:25:30.177Z,35.10
2018-04-30T22:27:59.960Z,35.09
2018-04-30T22:30:29.515Z,35.09
2018-04-30T22:32:58.536Z,35.09
2018-04-30T22:35:28.209Z,35.09
2018-04-30T22:37:57.462Z,35.08
2018-04-30T22:40:27.306Z,35.09
2018-04-30T22:42:57.221Z,35.08
2018-04-30T22:45:26.739Z,35.07
2018-04-30T22:47:55.668Z,35.06
2018-04-30T22:50:25.391Z,35.04
2018-04-30T22:52:54.999Z,35.04
2018-04-30T22:55:24.147Z,35.03
2018-04-30T22:57:53.290Z,35.02
2018-04-30T23:00:24.439Z,35.02
2018-04-30T23:02:53.450Z,35.01
2018-04-30T23:05:22.562Z,35.00
2018-04-30T23:07:52.821Z,34.99
2018-04-30T23:10:22.259Z,34.98
2018-04-30T23:12:52.171Z,34.99
2018-04-30T23:15:20.982Z,34.99
2018-04-30T23:17:50.817Z,34.97
2018-04-30T23:20:20.627Z,34.98
2018-04-30T23:22:50.293Z,34.97
2018-04-30T23:25:20.136Z,34.97
2018-04-30T23:27:49.015Z,34.96
2018-04-30T23:30:18.504Z,34.95
2018-04-30T23:32:47.928Z,34.95
2018-04-30T23:35:17.077Z,34.94
2018-04-30T23:37:46.032Z,34.93
2018-04-30T23:40:15.593Z,34.92
2018-04-30T23:42:45.016Z,34.91
2018-04-30T23:45:14.360Z,34.92
2018-04-30T23:47:44.136Z,34.91
2018-04-30T23:50:13.455Z,34.91
2018-04-30T23:52:42.635Z,34.90
2018-04-30T23:55:11.431Z,34.90
2018-04-30T23:57:40.852Z,34.89
